Flight Briefing for CPX448

Departure Arrival
Minneapolis-St Paul International Airport (KMSP)
Click to view FAA NOTAMS
Salt Lake City International Airport (KSLC)
Click to view FAA NOTAMS
Departure Time Arrival Time
N/A N/A
Aircraft Distance
B757-200SF 860nm
Departure METAR Arrival METAR
KMSP 230623Z 24012G20KT 10SM BKN021 BKN030 OVC050 13/09 A2977 RMK AO2 T01330089 KSLC 230554Z 12008KT 10SM SCT060 BKN090 BKN110 10/04 A2976 RMK AO2 CIG 060 NW RNWY SLP055 60003 T01000044 10122 20094 58001 VISNO NW RNWY
Suggested Route
LEINY6 LEINY RAP DDY NORDK6


View recent IFR Routes data
Notes



Charts and Procedures

Charts for KMSP
No chart available
Charts for KSLC
No chart available

Windy.com Weather Map